KDGW/DGW METAR and TAF weather

Enter ICAO airport designator
Station Type Date Time Source
KDGW METAR 2018/07/19 06:53 UTC NOAA

KDGW 190653Z AUTO 14003KT 10SM CLR 14/13 A3012 RMK AO2 SLP139 T01390128 403110122


Station Type Date Time Source
KDGW Decoded METAR 2018/07/19 06:53 UTC NOAA

DOUGLAS CONVERSE COUNTY, WY, United States (KDGW) 42-48N 105-23W 1499M
Jul 19, 2018 - 02:53 AM EDT / 2018.07.19 0653 UTC
Wind: from the SE (140 degrees) at 3 MPH (3 KT):0
Visibility: 10 mile(s):0
Sky conditions: clear
Temperature: 57.0 F (13.9 C)
Dew Point: 55.0 F (12.8 C)
Relative Humidity: 93%
Pressure (altimeter): 30.12 in. Hg (1019 hPa)
ob: KDGW 190653Z AUTO 14003KT 10SM CLR 14/13 A3012 RMK AO2 SLP139 T01390128 403110122
cycle: 7

Station Type Date Time Source
KDGW TAF UTC NOAA

Error!


Example: see airport list